Time;durP1;ratioP1;P1;durP2;ratioP2;P2;SDS_P1;SDS_P2;PMS_P1;PMS_P2;Temp;Humidity;BMP_temperature;BMP_pressure;BME280_temperature;BME280_humidity;BME280_pressure;Samples;Min_cycle;Max_cycle;Signal;HPM_P1;HPM_P2
2021/07/27 00:02:02;;;;;;;4.68;4.28;;;23.70;63.20;;;;;;5034548;28;20535;-64
2021/07/27 00:04:28;;;;;;;4.47;4.07;;;23.70;63.20;;;;;;5035310;28;20175;-64
2021/07/27 00:06:53;;;;;;;5.55;5.05;;;23.70;63.20;;;;;;5035196;28;20183;-64
2021/07/27 00:09:19;;;;;;;4.80;4.30;;;23.70;63.20;;;;;;5034535;28;20226;-65
2021/07/27 00:11:44;;;;;;;5.20;4.45;;;23.70;63.30;;;;;;5035317;28;20275;-64
2021/07/27 00:14:10;;;;;;;5.40;4.55;;;23.70;63.30;;;;;;5017563;28;20259;-64
2021/07/27 00:16:36;;;;;;;5.20;4.70;;;23.70;63.30;;;;;;5034165;28;20172;-64
2021/07/27 00:19:01;;;;;;;5.57;5.07;;;23.70;63.30;;;;;;5035386;28;20186;-64
2021/07/27 00:21:27;;;;;;;4.80;4.40;;;23.70;63.30;;;;;;5034885;28;20237;-65
2021/07/27 00:23:52;;;;;;;3.92;3.63;;;23.70;63.30;;;;;;5034279;28;20544;-65
2021/07/27 00:26:23;;;;;;;4.35;3.95;;;23.70;63.20;;;;;;5034833;28;20171;-64
2021/07/27 00:28:49;;;;;;;4.55;4.15;;;23.70;64.10;;;;;;5035088;28;20585;-63
2021/07/27 00:31:16;;;;;;;4.32;3.90;;;23.70;63.20;;;;;;5034163;28;20691;-63
2021/07/27 00:33:42;;;;;;;4.40;3.75;;;23.70;63.20;;;;;;5034531;28;20180;-63
2021/07/27 00:36:08;;;;;;;4.20;3.80;;;23.70;63.20;;;;;;5033851;28;20199;-64
2021/07/27 00:38:34;;;;;;;4.68;4.30;;;23.70;63.10;;;;;;5034591;28;20184;-64
2021/07/27 00:40:59;;;;;;;4.20;3.90;;;23.70;63.10;;;;;;5034652;28;20208;-64
2021/07/27 00:43:25;;;;;;;4.13;3.75;;;23.70;63.20;;;;;;5033481;28;20546;-64
2021/07/27 00:45:50;;;;;;;4.30;3.90;;;23.70;63.20;;;;;;5034452;28;20183;-64
2021/07/27 00:48:16;;;;;;;4.30;3.90;;;23.70;63.10;;;;;;5034385;28;20184;-65
2021/07/27 00:50:41;;;;;;;4.30;3.90;;;23.70;63.20;;;;;;5034315;28;20231;-64
2021/07/27 00:53:07;;;;;;;4.80;4.35;;;23.70;63.10;;;;;;5054304;28;20171;-64
2021/07/27 00:55:33;;;;;;;4.70;4.07;;;23.70;63.20;;;;;;5053987;28;20543;-63
2021/07/27 00:57:58;;;;;;;5.00;4.55;;;23.70;63.20;;;;;;5053604;28;20632;-64
2021/07/27 01:00:24;;;;;;;4.90;4.47;;;23.60;63.20;;;;;;5053834;28;20756;-64
2021/07/27 01:02:50;;;;;;;4.57;4.18;;;23.70;63.30;;;;;;5054336;28;20179;-64
2021/07/27 01:05:15;;;;;;;4.63;4.22;;;23.60;63.20;;;;;;5053081;28;20167;-64
2021/07/27 01:07:42;;;;;;;3.95;3.60;;;23.70;63.30;;;;;;5054003;28;20175;-64
2021/07/27 01:10:08;;;;;;;5.72;5.05;;;23.70;63.20;;;;;;5054189;28;20221;-65
2021/07/27 01:12:34;;;;;;;5.10;4.63;;;23.60;63.30;;;;;;5052937;28;20667;-64
2021/07/27 01:15:00;;;;;;;4.45;4.00;;;23.60;63.20;;;;;;5053942;28;20179;-64
2021/07/27 01:17:26;;;;;;;4.85;4.35;;;23.60;63.20;;;;;;5053908;28;20183;-64
2021/07/27 01:19:57;;;;;;;4.90;4.45;;;23.60;63.20;;;;;;5053316;28;20167;-64
2021/07/27 01:39:00;;;;;;;6.90;4.68;;;23.60;63.30;;;;;;5053715;28;20178;-64
2021/07/27 01:43:51;;;;;;;5.28;4.78;;;23.60;63.30;;;;;;5053479;28;20175;-64
2021/07/27 01:46:17;;;;;;;5.15;4.75;;;23.60;63.30;;;;;;5051555;28;20232;-64
2021/07/27 01:48:43;;;;;;;6.40;5.22;;;23.60;63.30;;;;;;5053281;28;20179;-63
2021/07/27 01:51:08;;;;;;;5.30;4.85;;;23.60;64.20;;;;;;5049292;28;20206;-64
2021/07/27 01:53:51;;;;;;;5.85;5.35;;;23.60;63.30;;;;;;5032549;28;20248;-64
2021/07/27 01:56:17;;;;;;;5.45;4.85;;;23.60;63.30;;;;;;5033120;28;20199;-63
2021/07/27 01:58:43;;;;;;;5.55;5.05;;;23.60;63.30;;;;;;5033108;28;20178;-64
2021/07/27 02:01:08;;;;;;;5.88;5.28;;;23.60;63.30;;;;;;5015211;28;20216;-63
2021/07/27 02:03:33;;;;;;;5.28;4.88;;;23.60;63.30;;;;;;5032909;28;20539;-64
2021/07/27 02:05:59;;;;;;;5.90;5.20;;;23.60;63.30;;;;;;5033379;28;20180;-64
2021/07/27 02:08:24;;;;;;;6.25;5.65;;;23.60;63.30;;;;;;5032435;28;20178;-64
2021/07/27 02:10:57;;;;;;;5.57;5.07;;;23.60;63.30;;;;;;5033377;28;20168;-64
2021/07/27 02:13:31;;;;;;;5.53;5.03;;;23.50;63.30;;;;;;5033375;28;20669;-64
2021/07/27 02:15:57;;;;;;;5.90;5.30;;;23.50;63.30;;;;;;5032484;28;20180;-64
2021/07/27 02:18:23;;;;;;;6.85;6.20;;;23.50;63.30;;;;;;5032661;28;20168;-64
2021/07/27 02:20:48;;;;;;;6.10;5.60;;;23.60;63.40;;;;;;5033410;28;20211;-64
2021/07/27 02:23:14;;;;;;;5.97;5.47;;;23.60;63.40;;;;;;5032438;28;20180;-65
2021/07/27 02:25:39;;;;;;;5.88;5.35;;;23.50;63.30;;;;;;5032619;28;20197;-64
2021/07/27 02:28:06;;;;;;;6.13;5.53;;;23.50;63.30;;;;;;5032853;28;20172;-64
2021/07/27 02:30:37;;;;;;;5.78;5.28;;;23.50;63.30;;;;;;5032112;28;20229;-63
2021/07/27 02:33:12;;;;;;;5.70;5.20;;;23.50;63.40;;;;;;5033169;28;20175;-63
2021/07/27 02:35:41;;;;;;;6.60;6.00;;;23.50;63.30;;;;;;5031779;28;20737;-63
2021/07/27 02:38:06;;;;;;;6.68;6.10;;;23.50;63.30;;;;;;5032647;28;20175;-63
2021/07/27 02:40:35;;;;;;;6.63;5.88;;;23.50;63.40;;;;;;5032488;28;20212;-64
2021/07/27 02:43:02;;;;;;;6.35;5.78;;;23.50;63.30;;;;;;5032191;28;20211;-64
2021/07/27 02:45:27;;;;;;;9.85;6.40;;;23.50;63.30;;;;;;5032514;28;20182;-64
2021/07/27 02:47:53;;;;;;;6.15;5.55;;;23.50;63.40;;;;;;5032801;28;20171;-64
2021/07/27 02:50:19;;;;;;;7.13;6.43;;;23.50;63.40;;;;;;5031480;28;20223;-64
2021/07/27 02:52:44;;;;;;;7.00;6.20;;;23.50;63.40;;;;;;5050018;28;20180;-64
2021/07/27 02:55:10;;;;;;;6.78;6.07;;;23.50;63.30;;;;;;5052428;28;20681;-64
2021/07/27 02:57:36;;;;;;;6.45;5.85;;;23.50;63.40;;;;;;5053193;28;20179;-64
2021/07/27 03:00:02;;;;;;;7.18;6.47;;;23.50;63.30;;;;;;5056512;28;20178;-64
2021/07/27 03:02:37;;;;;;;7.07;6.45;;;23.50;63.40;;;;;;5056346;28;20198;-64
2021/07/27 03:05:04;;;;;;;7.03;6.43;;;23.50;63.40;;;;;;5055829;28;20170;-64
2021/07/27 03:07:48;;;;;;;6.78;6.07;;;23.50;63.40;;;;;;5056210;28;20211;-64
2021/07/27 03:10:17;;;;;;;7.50;6.70;;;23.50;63.40;;;;;;5056409;28;20633;-64
2021/07/27 03:12:44;;;;;;;7.07;6.43;;;23.50;63.40;;;;;;5055681;28;20185;-64
2021/07/27 03:15:13;;;;;;;7.35;6.50;;;23.50;63.40;;;;;;5056277;28;20179;-64
2021/07/27 03:17:38;;;;;;;8.50;7.70;;;23.40;63.40;;;;;;5055932;28;20659;-64
2021/07/27 03:20:05;;;;;;;7.70;6.88;;;23.50;63.40;;;;;;5055717;28;20286;-64
2021/07/27 03:22:30;;;;;;;7.72;7.03;;;23.50;63.40;;;;;;5054427;28;20191;-64
2021/07/27 03:24:56;;;;;;;9.70;8.00;;;23.50;63.40;;;;;;5055371;28;20651;-64
2021/07/27 03:27:22;;;;;;;7.47;6.78;;;23.50;63.40;;;;;;5055859;28;20182;-64
2021/07/27 03:29:47;;;;;;;7.97;7.28;;;23.40;63.40;;;;;;5056041;28;20171;-63
2021/07/27 03:32:13;;;;;;;7.43;6.72;;;23.50;63.40;;;;;;5055217;28;20644;-63
2021/07/27 03:34:38;;;;;;;8.38;7.60;;;23.40;63.40;;;;;;5055601;28;20186;-63
2021/07/27 03:37:04;;;;;;;7.80;7.13;;;23.40;63.50;;;;;;5055771;28;20171;-64
2021/07/27 03:39:29;;;;;;;8.85;7.40;;;23.40;63.40;;;;;;5055102;28;20179;-64
2021/07/27 03:41:55;;;;;;;8.23;7.38;;;23.40;63.50;;;;;;5055798;28;20210;-64
2021/07/27 03:44:20;;;;;;;8.63;7.88;;;23.40;63.40;;;;;;5055518;28;20174;-65
2021/07/27 03:46:46;;;;;;;8.75;7.85;;;23.40;63.40;;;;;;5054947;28;20175;-64
2021/07/27 03:49:11;;;;;;;8.75;8.00;;;23.40;63.40;;;;;;5055389;28;20688;-64
2021/07/27 03:51:37;;;;;;;8.38;7.60;;;23.40;63.40;;;;;;5046918;28;20646;-64
2021/07/27 03:54:03;;;;;;;8.73;7.82;;;23.40;63.40;;;;;;5034980;28;20172;-64
2021/07/27 03:56:28;;;;;;;8.60;7.53;;;23.40;63.40;;;;;;5035243;28;20634;-65
2021/07/27 03:58:54;;;;;;;8.50;7.80;;;23.40;63.40;;;;;;5035606;28;20179;-64
2021/07/27 04:01:20;;;;;;;8.68;7.82;;;23.40;63.40;;;;;;5034466;28;20298;-64
2021/07/27 04:03:45;;;;;;;8.48;7.53;;;23.40;63.40;;;;;;5035341;28;20643;-64
2021/07/27 04:06:13;;;;;;;8.27;7.57;;;23.40;63.50;;;;;;5035581;28;20266;-64
2021/07/27 04:08:38;;;;;;;8.68;7.88;;;23.40;63.50;;;;;;5033348;28;20548;-64
2021/07/27 04:11:04;;;;;;;9.02;8.23;;;23.40;63.50;;;;;;5035240;28;20179;-64
2021/07/27 04:13:31;;;;;;;8.95;8.15;;;23.40;63.50;;;;;;5034905;28;20665;-64
2021/07/27 04:16:00;;;;;;;8.65;7.85;;;23.40;63.50;;;;;;5034530;28;20172;-64
2021/07/27 04:18:26;;;;;;;8.88;8.07;;;23.40;63.50;;;;;;5035040;28;20176;-64
2021/07/27 04:20:54;;;;;;;8.18;7.38;;;23.40;63.50;;;;;;5035103;28;20211;-65
2021/07/27 04:23:20;;;;;;;9.27;8.38;;;23.40;63.50;;;;;;5034196;28;20188;-64
2021/07/27 04:25:45;;;;;;;8.70;7.90;;;23.40;63.50;;;;;;5034919;28;20180;-65
2021/07/27 04:28:11;;;;;;;9.90;8.90;;;23.40;63.50;;;;;;5034349;28;20218;-64
2021/07/27 04:30:36;;;;;;;9.15;8.25;;;23.40;63.50;;;;;;5034573;28;20172;-63
2021/07/27 04:33:02;;;;;;;8.55;7.75;;;23.40;63.50;;;;;;5034797;28;20526;-63
2021/07/27 04:35:28;;;;;;;8.90;8.00;;;23.40;63.50;;;;;;5033797;28;20183;-62
2021/07/27 04:37:56;;;;;;;8.65;7.85;;;23.40;63.50;;;;;;5034704;28;20168;-64
2021/07/27 04:40:22;;;;;;;8.68;7.88;;;23.40;63.50;;;;;;5034374;28;20250;-64
2021/07/27 04:42:47;;;;;;;8.75;7.85;;;23.30;63.40;;;;;;5033907;28;20164;-64
2021/07/27 04:45:13;;;;;;;8.23;7.45;;;23.40;63.50;;;;;;5034534;28;20226;-64
2021/07/27 04:47:38;;;;;;;8.55;7.75;;;23.40;63.50;;;;;;5034651;28;20262;-64
2021/07/27 04:50:05;;;;;;;9.05;8.25;;;23.40;63.50;;;;;;5033681;28;20235;-64
2021/07/27 04:52:31;;;;;;;8.27;7.47;;;23.40;63.50;;;;;;5050000;28;20305;-64
2021/07/27 04:54:56;;;;;;;8.40;7.70;;;23.40;63.40;;;;;;5054679;28;20262;-65
2021/07/27 04:57:22;;;;;;;8.18;7.47;;;23.40;63.40;;;;;;5053722;28;20174;-65
2021/07/27 04:59:48;;;;;;;8.88;8.02;;;23.40;63.40;;;;;;5054268;28;20171;-65
2021/07/27 05:02:13;;;;;;;9.43;8.52;;;23.40;63.40;;;;;;5054091;28;20221;-63
2021/07/27 05:04:39;;;;;;;8.35;7.55;;;23.40;63.40;;;;;;5053247;28;20178;-63
2021/07/27 05:07:04;;;;;;;8.88;8.07;;;23.40;63.40;;;;;;5054488;28;20182;-63
2021/07/27 05:09:30;;;;;;;9.15;8.25;;;23.40;63.40;;;;;;5053830;28;20178;-63
2021/07/27 05:11:56;;;;;;;8.30;7.60;;;23.40;63.40;;;;;;5053327;28;20503;-63
2021/07/27 05:14:22;;;;;;;8.48;7.68;;;23.40;63.30;;;;;;5053701;28;20171;-63
2021/07/27 05:16:47;;;;;;;8.60;7.80;;;23.40;63.30;;;;;;5053785;28;20660;-63
2021/07/27 05:19:13;;;;;;;8.55;7.75;;;23.40;63.30;;;;;;5053104;28;20532;-63
2021/07/27 05:21:38;;;;;;;8.35;7.65;;;23.40;63.30;;;;;;5053540;28;20218;-63
2021/07/27 05:24:04;;;;;;;8.52;7.72;;;23.40;63.30;;;;;;5053870;28;20183;-64
2021/07/27 05:26:30;;;;;;;7.72;7.00;;;23.40;64.10;;;;;;5052767;28;20171;-63
2021/07/27 05:28:55;;;;;;;8.60;7.78;;;23.50;63.30;;;;;;5053666;28;20167;-62
2021/07/27 05:31:26;;;;;;;8.68;7.88;;;23.50;63.30;;;;;;5052562;28;20189;-62
2021/07/27 05:33:52;;;;;;;8.43;7.65;;;23.50;63.30;;;;;;5053501;28;20587;-62
2021/07/27 05:36:17;;;;;;;7.80;7.20;;;23.40;63.30;;;;;;5053198;28;20174;-63
2021/07/27 05:38:43;;;;;;;8.45;7.75;;;23.40;63.30;;;;;;5052899;28;20175;-63
2021/07/27 05:41:08;;;;;;;7.97;7.28;;;23.50;63.30;;;;;;5053251;28;20235;-64
2021/07/27 05:43:34;;;;;;;8.38;7.68;;;23.50;63.40;;;;;;5053102;28;20174;-64
2021/07/27 05:46:02;;;;;;;8.48;7.68;;;23.40;63.30;;;;;;5052893;28;20186;-64
2021/07/27 05:48:27;;;;;;;8.20;7.50;;;23.40;63.30;;;;;;5053118;28;20175;-64
2021/07/27 05:50:53;;;;;;;7.78;6.95;;;23.40;63.30;;;;;;5051169;28;20183;-63
2021/07/27 05:53:18;;;;;;;7.80;7.10;;;23.40;63.30;;;;;;5032527;28;20538;-63
2021/07/27 05:55:43;;;;;;;7.68;7.07;;;23.50;63.30;;;;;;5033264;28;20313;-63
2021/07/27 05:58:09;;;;;;;7.75;7.05;;;23.50;63.30;;;;;;5033435;28;20653;-63
2021/07/27 06:00:37;;;;;;;8.05;7.35;;;23.50;63.30;;;;;;5032393;28;20765;-63
2021/07/27 06:03:04;;;;;;;7.68;6.97;;;23.50;63.20;;;;;;5033402;28;20172;-63
2021/07/27 06:05:29;;;;;;;7.60;6.95;;;23.50;63.20;;;;;;5033178;28;20172;-63
2021/07/27 06:07:55;;;;;;;8.55;7.75;;;23.50;63.20;;;;;;5032646;28;20638;-64
2021/07/27 06:10:20;;;;;;;7.53;6.93;;;23.50;63.20;;;;;;5032864;28;20191;-64
2021/07/27 06:12:46;;;;;;;7.50;6.80;;;23.50;63.10;;;;;;5033014;28;20167;-64
2021/07/27 06:15:12;;;;;;;7.90;7.20;;;23.50;63.10;;;;;;5032222;28;20584;-63
2021/07/27 06:17:37;;;;;;;8.18;7.47;;;23.50;63.10;;;;;;5032875;28;20266;-64
2021/07/27 06:20:03;;;;;;;7.35;6.68;;;23.50;63.10;;;;;;5015451;28;20201;-65
2021/07/27 06:22:29;;;;;;;7.78;7.07;;;23.60;63.20;;;;;;5032010;28;20654;-64
2021/07/27 06:24:55;;;;;;;7.15;6.55;;;23.50;63.00;;;;;;5032907;28;20763;-64
2021/07/27 06:27:20;;;;;;;7.68;6.93;;;23.50;63.10;;;;;;5032465;28;20179;-64
2021/07/27 06:29:46;;;;;;;7.22;6.60;;;23.50;63.00;;;;;;5032106;28;20186;-63
2021/07/27 06:32:11;;;;;;;6.90;6.30;;;23.60;63.10;;;;;;5032567;28;20229;-63
2021/07/27 06:34:37;;;;;;;7.97;7.28;;;23.60;63.10;;;;;;5032130;28;20626;-62
2021/07/27 06:37:03;;;;;;;7.40;6.75;;;23.60;63.10;;;;;;5032555;28;20266;-64
2021/07/27 06:39:31;;;;;;;7.32;6.63;;;23.60;63.00;;;;;;5032460;28;20179;-63
2021/07/27 06:41:57;;;;;;;7.30;6.65;;;23.60;62.90;;;;;;5031713;28;20326;-64
2021/07/27 06:44:22;;;;;;;7.43;6.82;;;23.60;62.90;;;;;;5032625;28;20295;-64
2021/07/27 06:46:48;;;;;;;6.68;6.15;;;23.60;62.90;;;;;;5032591;28;20215;-64
2021/07/27 06:49:15;;;;;;;6.85;6.35;;;23.60;62.90;;;;;;5031933;28;20234;-64
2021/07/27 06:51:41;;;;;;;7.15;6.63;;;23.60;62.90;;;;;;5041305;28;20185;-64
2021/07/27 06:54:08;;;;;;;7.47;6.88;;;23.60;62.80;;;;;;5052603;28;20198;-64
2021/07/27 06:56:34;;;;;;;6.93;6.43;;;23.60;62.90;;;;;;5051514;28;20309;-64
2021/07/27 06:59:01;;;;;;;7.22;6.53;;;23.60;62.90;;;;;;5052739;28;20609;-63
2021/07/27 07:01:26;;;;;;;7.07;6.47;;;23.60;63.10;;;;;;5052289;28;20210;-64
2021/07/27 07:03:52;;;;;;;7.47;6.88;;;23.60;63.20;;;;;;5051830;28;20186;-63
2021/07/27 07:06:18;;;;;;;7.38;6.60;;;23.60;63.10;;;;;;5052370;28;20643;-64
2021/07/27 07:08:43;;;;;;;7.88;7.18;;;23.60;63.10;;;;;;5052402;28;20175;-64
2021/07/27 07:11:10;;;;;;;6.55;6.05;;;23.60;63.00;;;;;;5051613;28;20612;-64
2021/07/27 07:13:36;;;;;;;6.78;6.28;;;23.60;63.00;;;;;;5052214;28;20183;-64
2021/07/27 07:16:06;;;;;;;7.28;6.68;;;23.60;63.10;;;;;;5052571;28;20171;-64
2021/07/27 07:18:32;;;;;;;7.38;6.68;;;23.60;63.20;;;;;;5051509;28;20179;-64
2021/07/27 07:20:57;;;;;;;6.93;6.43;;;23.60;63.20;;;;;;5052153;28;20249;-64
2021/07/27 07:23:23;;;;;;;7.05;6.45;;;23.60;63.30;;;;;;5051976;28;20221;-64
2021/07/27 07:25:50;;;;;;;7.45;6.85;;;23.50;63.30;;;;;;5051392;28;20175;-64
2021/07/27 07:28:16;;;;;;;7.45;6.85;;;23.50;63.30;;;;;;5052185;28;20194;-63
2021/07/27 07:30:41;;;;;;;7.05;6.45;;;23.50;63.30;;;;;;5052620;28;20654;-62
2021/07/27 07:33:07;;;;;;;7.25;6.65;;;23.50;63.40;;;;;;5051550;28;20179;-63
2021/07/27 07:35:32;;;;;;;7.03;6.28;;;23.50;63.40;;;;;;5052117;28;20186;-63
2021/07/27 07:37:58;;;;;;;7.03;6.43;;;23.50;63.40;;;;;;5051397;28;20241;-64
2021/07/27 07:40:23;;;;;;;6.68;6.18;;;23.50;63.40;;;;;;5051655;28;20211;-64
2021/07/27 07:42:49;;;;;;;7.25;6.65;;;23.50;63.30;;;;;;5052272;28;20248;-64
2021/07/27 07:45:14;;;;;;;6.22;5.72;;;23.50;63.30;;;;;;5053501;28;20186;-64
2021/07/27 07:47:43;;;;;;;7.15;6.43;;;23.50;63.30;;;;;;5055454;28;20580;-63
2021/07/27 07:50:10;;;;;;;6.68;6.07;;;23.50;63.30;;;;;;5055448;28;20309;-64
2021/07/27 07:52:35;;;;;;;6.70;6.15;;;23.50;63.30;;;;;;5038152;28;20700;-63
2021/07/27 07:55:05;;;;;;;7.28;6.68;;;23.50;63.20;;;;;;5035410;28;20192;-63
2021/07/27 07:57:34;;;;;;;6.97;6.32;;;23.50;63.20;;;;;;5035344;28;20184;-63
2021/07/27 08:00:00;;;;;;;7.05;6.45;;;23.60;63.20;;;;;;5034857;28;20187;-63
2021/07/27 08:02:27;;;;;;;6.75;6.25;;;23.60;63.20;;;;;;5035206;28;20195;-63
2021/07/27 08:04:53;;;;;;;7.35;6.75;;;23.60;63.20;;;;;;5035676;28;20222;-63
2021/07/27 08:07:18;;;;;;;6.35;5.85;;;23.60;63.10;;;;;;5034200;28;20183;-64
2021/07/27 08:09:44;;;;;;;6.53;6.03;;;23.70;62.90;;;;;;5035209;28;20195;-64
2021/07/27 08:12:09;;;;;;;7.07;6.47;;;23.70;62.80;;;;;;5035466;28;20171;-64
2021/07/27 08:14:34;;;;;;;6.65;6.15;;;23.70;62.70;;;;;;5034506;28;20188;-64
2021/07/27 08:17:00;;;;;;;6.28;5.78;;;23.70;62.70;;;;;;5035444;28;20176;-64
2021/07/27 08:19:26;;;;;;;6.22;5.65;;;23.70;62.80;;;;;;5034917;28;20520;-64
2021/07/27 08:21:51;;;;;;;6.70;6.20;;;23.60;62.90;;;;;;5034229;28;20211;-65
2021/07/27 08:24:17;;;;;;;6.20;5.70;;;23.70;63.10;;;;;;5034653;28;20550;-64
2021/07/27 08:26:42;;;;;;;6.65;6.15;;;23.60;63.20;;;;;;5035259;28;20225;-64
2021/07/27 08:29:08;;;;;;;7.40;6.75;;;23.60;63.30;;;;;;5034314;28;20229;-65
2021/07/27 08:31:33;;;;;;;6.75;6.15;;;23.60;63.40;;;;;;5034750;28;20172;-64
2021/07/27 08:33:59;;;;;;;6.38;5.88;;;23.60;63.50;;;;;;5034772;28;20175;-64
2021/07/27 08:36:24;;;;;;;6.75;6.18;;;23.60;63.40;;;;;;5033748;28;20539;-64
2021/07/27 08:38:50;;;;;;;6.47;5.88;;;23.60;63.30;;;;;;5034721;28;20237;-65
2021/07/27 08:41:18;;;;;;;7.82;6.45;;;23.60;63.30;;;;;;5033320;28;20318;-65
2021/07/27 08:43:43;;;;;;;6.55;5.85;;;23.70;63.30;;;;;;5017211;28;20183;-65
2021/07/27 08:46:09;;;;;;;6.85;6.15;;;23.70;63.10;;;;;;5034704;28;20176;-65
2021/07/27 08:48:35;;;;;;;6.57;6.07;;;23.70;62.90;;;;;;5015715;28;21114;-65
2021/07/27 08:51:01;;;;;;;6.85;6.30;;;23.70;62.90;;;;;;5038015;28;20167;-66
2021/07/27 08:53:26;;;;;;;6.93;6.05;;;23.70;63.00;;;;;;5036386;28;20543;-65
2021/07/27 08:55:52;;;;;;;6.82;6.22;;;23.80;63.30;;;;;;5053552;28;20633;-65
2021/07/27 08:58:18;;;;;;;6.82;6.22;;;23.80;63.40;;;;;;5054306;28;20609;-66
2021/07/27 09:00:44;;;;;;;6.30;5.70;;;23.80;63.30;;;;;;5054513;28;20210;-65
2021/07/27 09:03:17;;;;;;;7.53;6.53;;;23.80;63.20;;;;;;5053730;28;20202;-65
2021/07/27 09:05:42;;;;;;;7.25;6.57;;;23.80;63.10;;;;;;5054138;28;20177;-65
2021/07/27 09:08:10;;;;;;;7.28;5.90;;;23.90;63.20;;;;;;5054369;28;20249;-65
2021/07/27 09:10:36;;;;;;;5.75;5.25;;;23.80;63.20;;;;;;5053417;28;20683;-65
2021/07/27 09:13:04;;;;;;;6.63;6.13;;;23.90;63.20;;;;;;5054283;28;20179;-64
2021/07/27 09:15:32;;;;;;;6.50;5.90;;;23.90;63.20;;;;;;5053781;28;20203;-65
2021/07/27 09:17:58;;;;;;;6.90;6.28;;;23.90;63.10;;;;;;5053178;28;20641;-65
2021/07/27 09:20:32;;;;;;;7.50;6.35;;;23.90;64.00;;;;;;5053847;28;20216;-67
2021/07/27 09:22:58;;;;;;;6.93;6.10;;;23.90;63.10;;;;;;5054185;28;20179;-66
2021/07/27 09:25:25;;;;;;;6.03;5.50;;;23.90;63.10;;;;;;5052655;28;20540;-65
2021/07/27 09:28:03;;;;;;;8.98;6.05;;;23.90;63.10;;;;;;5053850;28;20220;-65
2021/07/27 09:30:29;;;;;;;6.82;6.20;;;24.00;63.00;;;;;;5052715;28;20179;-64
2021/07/27 09:32:55;;;;;;;5.63;5.15;;;24.10;62.70;;;;;;5053720;28;20218;-67
2021/07/27 09:35:22;;;;;;;6.93;6.18;;;24.00;62.80;;;;;;5053627;28;20372;-67
2021/07/27 09:38:07;;;;;;;7.50;6.80;;;24.00;63.10;;;;;;5053066;28;20183;-67
2021/07/27 09:40:34;;;;;;;6.97;5.78;;;24.00;63.10;;;;;;5053013;28;20302;-67
2021/07/27 09:43:00;;;;;;;6.13;5.57;;;24.00;63.10;;;;;;5053589;28;20203;-67
2021/07/27 09:45:26;;;;;;;7.10;6.40;;;24.00;63.10;;;;;;5052379;28;20207;-68
2021/07/27 09:47:53;;;;;;;6.50;5.90;;;24.00;63.20;;;;;;5053677;28;20249;-72
2021/07/27 09:50:19;;;;;;;6.50;5.93;;;24.10;63.30;;;;;;5035388;28;20285;-71
2021/07/27 09:52:44;;;;;;;6.05;5.55;;;24.00;63.30;;;;;;5017437;28;20176;-71
2021/07/27 09:55:13;;;;;;;6.53;5.93;;;24.10;63.50;;;;;;5033547;28;20569;-70
2021/07/27 09:57:39;;;;;;;8.68;6.40;;;24.10;63.30;;;;;;5034163;28;20535;-71
2021/07/27 10:00:05;;;;;;;5.78;5.28;;;24.10;63.20;;;;;;5032885;28;20180;-71
2021/07/27 10:02:30;;;;;;;6.38;5.78;;;24.10;63.40;;;;;;5033309;28;20262;-71
2021/07/27 10:04:56;;;;;;;6.30;5.80;;;24.10;63.40;;;;;;5015589;28;20195;-71
2021/07/27 10:07:29;;;;;;;6.25;5.78;;;24.10;63.40;;;;;;5014048;28;20172;-70
2021/07/27 10:10:04;;;;;;;7.00;6.40;;;24.20;63.20;;;;;;5033200;28;20207;-71
2021/07/27 10:12:33;;;;;;;6.03;5.45;;;24.20;63.10;;;;;;5032775;28;20172;-71
2021/07/27 10:15:15;;;;;;;6.82;6.22;;;24.20;63.10;;;;;;5032504;28;20210;-69
2021/07/27 10:17:54;;;;;;;7.65;5.70;;;24.20;63.10;;;;;;5033197;28;20513;-69
2021/07/27 10:20:27;;;;;;;6.57;6.00;;;24.10;63.40;;;;;;5032220;28;20176;-71
2021/07/27 10:22:52;;;;;;;6.13;5.53;;;24.20;63.40;;;;;;5032319;28;20214;-71
2021/07/27 10:25:18;;;;;;;6.43;5.93;;;24.20;63.30;;;;;;5023121;28;20200;-70
2021/07/27 10:27:50;;;;;;;7.03;6.35;;;24.20;63.30;;;;;;5022891;28;20537;-69
2021/07/27 10:30:16;;;;;;;6.45;5.95;;;24.30;63.30;;;;;;5023880;28;20182;-70
2021/07/27 10:32:54;;;;;;;5.88;5.38;;;24.20;63.20;;;;;;5027563;28;20219;-72
2021/07/27 10:35:32;;;;;;;6.35;5.78;;;24.30;63.10;;;;;;5031558;28;20179;-72
2021/07/27 10:38:11;;;;;;;6.40;5.75;;;24.30;63.00;;;;;;5033020;28;20184;-65
2021/07/27 10:40:36;;;;;;;5.75;5.25;;;24.30;63.30;;;;;;5032548;28;20207;-65
2021/07/27 10:43:07;;;;;;;6.43;5.82;;;24.20;63.30;;;;;;5030880;28;20532;-65
2021/07/27 10:45:33;;;;;;;7.35;5.78;;;24.20;63.40;;;;;;5032241;28;20179;-66
2021/07/27 10:47:58;;;;;;;6.78;5.93;;;24.20;63.40;;;;;;5031624;28;20577;-65
2021/07/27 10:50:28;;;;;;;7.60;6.38;;;24.20;63.30;;;;;;5031886;28;20223;-67
2021/07/27 10:53:01;;;;;;;6.13;5.63;;;24.20;63.50;;;;;;5051524;28;20175;-64
2021/07/27 10:55:28;;;;;;;6.75;6.13;;;24.10;63.50;;;;;;5051640;28;20175;-65
2021/07/27 10:57:54;;;;;;;6.07;5.57;;;24.10;63.60;;;;;;5034947;28;20207;-66
2021/07/27 11:00:28;;;;;;;8.10;6.25;;;24.10;63.60;;;;;;5034206;28;20212;-65
2021/07/27 11:02:57;;;;;;;6.82;6.00;;;24.10;63.70;;;;;;5033994;28;20637;-64
2021/07/27 11:05:26;;;;;;;10.25;6.68;;;24.00;63.70;;;;;;5052240;28;20171;-64
2021/07/27 11:07:52;;;;;;;6.55;6.00;;;24.00;63.80;;;;;;5052463;28;20266;-64
2021/07/27 11:10:19;;;;;;;6.28;5.78;;;24.00;63.90;;;;;;5051573;28;20270;-64
2021/07/27 11:12:45;;;;;;;7.20;6.40;;;24.00;63.90;;;;;;5052497;28;20186;-63
2021/07/27 11:15:11;;;;;;;6.38;5.78;;;24.00;63.90;;;;;;5052311;28;20175;-64
2021/07/27 11:17:47;;;;;;;6.53;5.85;;;24.00;63.90;;;;;;5051605;28;20225;-65
2021/07/27 11:20:15;;;;;;;7.10;5.90;;;24.00;63.90;;;;;;5056143;28;20175;-66
2021/07/27 11:22:45;;;;;;;7.97;6.32;;;24.00;63.90;;;;;;5056262;28;20183;-65
2021/07/27 11:25:11;;;;;;;6.75;6.10;;;24.00;63.80;;;;;;5037337;28;20629;-65
2021/07/27 11:27:36;;;;;;;7.38;6.15;;;24.00;63.80;;;;;;5037808;28;20171;-65
2021/07/27 11:30:04;;;;;;;10.38;6.22;;;24.00;63.80;;;;;;5037911;28;20198;-65
2021/07/27 11:32:36;;;;;;;7.38;6.50;;;24.10;63.80;;;;;;5055934;28;20179;-65
2021/07/27 11:35:02;;;;;;;7.32;6.28;;;24.20;63.60;;;;;;5055873;28;20281;-64
2021/07/27 11:37:27;;;;;;;8.32;6.07;;;24.20;63.30;;;;;;5054995;28;20616;-65
2021/07/27 11:39:53;;;;;;;6.78;6.28;;;24.20;63.20;;;;;;5055710;28;20269;-66
2021/07/27 11:42:33;;;;;;;6.82;6.20;;;24.20;63.20;;;;;;5055646;28;20372;-65
2021/07/27 11:45:02;;;;;;;6.40;5.88;;;24.20;63.20;;;;;;5055180;28;20171;-66
2021/07/27 11:47:43;;;;;;;6.45;5.85;;;24.20;63.40;;;;;;5055591;28;20213;-65
2021/07/27 11:50:29;;;;;;;6.05;5.43;;;24.10;63.50;;;;;;5055337;28;20254;-65
2021/07/27 11:52:59;;;;;;;6.05;5.45;;;24.00;63.70;;;;;;5035719;28;20225;-65
2021/07/27 11:55:31;;;;;;;7.65;6.50;;;24.00;63.80;;;;;;5035464;28;20183;-64
2021/07/27 11:57:57;;;;;;;9.65;8.02;;;23.90;64.00;;;;;;5035429;28;20635;-65
2021/07/27 12:00:23;;;;;;;8.50;7.57;;;23.90;63.60;;;;;;5034396;28;20172;-66
2021/07/27 12:02:48;;;;;;;10.45;7.35;;;23.90;63.30;;;;;;5035297;28;20184;-67
2021/07/27 12:05:14;;;;;;;8.52;7.63;;;23.90;63.70;;;;;;5034977;28;20180;-66
2021/07/27 12:07:39;;;;;;;7.95;7.30;;;23.80;63.70;;;;;;5035210;28;20172;-69
2021/07/27 12:10:06;;;;;;;9.10;7.10;;;23.90;63.70;;;;;;5035464;28;20180;-65
2021/07/27 12:12:32;;;;;;;7.72;7.00;;;23.80;63.70;;;;;;5034382;28;20240;-65
2021/07/27 12:14:57;;;;;;;9.20;6.75;;;23.80;63.90;;;;;;5035364;28;20254;-65
2021/07/27 12:17:23;;;;;;;9.68;6.30;;;23.70;63.60;;;;;;5034887;28;20516;-66
2021/07/27 12:19:49;;;;;;;7.55;6.80;;;23.80;63.60;;;;;;5034877;28;20246;-66
2021/07/27 12:22:17;;;;;;;8.65;6.90;;;23.80;63.50;;;;;;5034963;28;20214;-66
2021/07/27 12:24:43;;;;;;;7.07;5.72;;;23.80;63.50;;;;;;5035181;28;20179;-66
2021/07/27 12:27:09;;;;;;;7.55;5.93;;;23.80;63.40;;;;;;5034319;28;20172;-65
2021/07/27 12:29:36;;;;;;;7.22;6.57;;;23.80;63.30;;;;;;5034108;28;20381;-65
2021/07/27 12:32:01;;;;;;;8.20;6.45;;;23.80;63.30;;;;;;5034644;28;20182;-64
2021/07/27 12:34:27;;;;;;;6.97;5.70;;;23.90;63.30;;;;;;5034035;28;20175;-65
2021/07/27 12:36:55;;;;;;;6.95;6.07;;;23.90;63.30;;;;;;5034945;28;20660;-65
2021/07/27 12:39:24;;;;;;;5.82;5.43;;;23.90;63.30;;;;;;5016597;28;20234;-65
2021/07/27 12:41:50;;;;;;;6.68;5.70;;;23.90;63.10;;;;;;5034092;28;20219;-66
2021/07/27 12:44:16;;;;;;;7.45;5.93;;;24.00;63.10;;;;;;5034319;28;20179;-66
2021/07/27 12:46:42;;;;;;;6.50;5.95;;;24.00;62.90;;;;;;5034796;28;20179;-65
2021/07/27 12:49:09;;;;;;;6.20;5.70;;;24.00;62.90;;;;;;5016001;28;20779;-66
2021/07/27 12:51:35;;;;;;;6.38;5.82;;;24.10;62.90;;;;;;5042250;28;20198;-65
2021/07/27 12:54:00;;;;;;;6.68;5.20;;;24.00;62.80;;;;;;5054557;28;20183;-65
2021/07/27 12:56:26;;;;;;;8.35;5.75;;;24.00;62.80;;;;;;5053348;28;20175;-66
2021/07/27 12:58:51;;;;;;;7.10;5.10;;;24.10;62.80;;;;;;5036425;28;20179;-65
2021/07/27 13:01:17;;;;;;;5.82;5.32;;;24.20;62.70;;;;;;5053839;28;20629;-65
2021/07/27 13:03:42;;;;;;;5.40;4.90;;;24.20;62.60;;;;;;5053799;28;20178;-65